createdAt,value
2023-08-29T00:01:15.256Z,2.10
2023-08-29T00:03:50.564Z,2.15
2023-08-29T00:06:22.046Z,2.03
2023-08-29T00:08:54.041Z,2.10
2023-08-29T00:11:28.061Z,2.75
2023-08-29T00:14:02.061Z,2.40
2023-08-29T00:16:36.111Z,2.63
2023-08-29T00:19:10.728Z,2.60
2023-08-29T00:21:43.341Z,2.38
2023-08-29T00:24:15.982Z,1.87
2023-08-29T00:26:48.218Z,1.95
2023-08-29T00:29:20.245Z,2.13
2023-08-29T00:31:52.196Z,1.60
2023-08-29T00:34:27.674Z,1.60
2023-08-29T00:37:00.411Z,1.70
2023-08-29T00:39:32.351Z,1.63
2023-08-29T00:42:04.094Z,1.67
2023-08-29T00:44:36.060Z,1.70
2023-08-29T00:47:10.598Z,1.37
2023-08-29T00:49:47.624Z,1.55
2023-08-29T00:52:19.994Z,1.67
2023-08-29T00:54:52.100Z,1.60
2023-08-29T00:57:25.034Z,1.52
2023-08-29T00:59:58.026Z,1.40
2023-08-29T01:02:30.151Z,1.30
2023-08-29T01:05:05.655Z,1.30
2023-08-29T01:07:37.065Z,1.30
2023-08-29T01:10:10.216Z,1.40
2023-08-29T01:12:47.141Z,1.55
2023-08-29T01:15:23.120Z,1.58
2023-08-29T01:17:59.563Z,1.20
2023-08-29T01:20:34.988Z,1.63
2023-08-29T01:23:14.788Z,1.50
2023-08-29T01:25:51.959Z,1.08
2023-08-29T01:28:28.708Z,0.75
2023-08-29T01:31:01.087Z,1.40
2023-08-29T01:33:33.038Z,1.20
2023-08-29T01:36:05.100Z,1.50
2023-08-29T01:38:37.052Z,1.30
2023-08-29T01:41:11.122Z,1.33
2023-08-29T01:43:45.681Z,1.30
2023-08-29T01:46:20.078Z,1.15
2023-08-29T01:48:53.029Z,1.00
2023-08-29T01:51:25.270Z,1.08
2023-08-29T01:53:57.159Z,1.15
2023-08-29T01:56:31.728Z,0.90
2023-08-29T01:59:05.673Z,0.90
2023-08-29T02:01:37.227Z,1.20
2023-08-29T02:04:10.483Z,1.00
2023-08-29T02:06:44.021Z,1.58
2023-08-29T02:09:16.039Z,0.70
2023-08-29T02:11:50.066Z,0.85
2023-08-29T02:14:24.685Z,0.70
2023-08-29T02:16:56.184Z,0.87
2023-08-29T02:19:30.395Z,0.90
2023-08-29T02:22:02.030Z,0.85
2023-08-29T02:24:37.175Z,0.60
2023-08-29T02:27:12.035Z,0.60
2023-08-29T02:29:52.044Z,0.67
2023-08-29T02:32:24.222Z,1.00
2023-08-29T02:34:57.109Z,0.80
2023-08-29T02:37:30.048Z,0.90
2023-08-29T02:40:06.313Z,0.65
2023-08-29T02:42:38.115Z,0.70
2023-08-29T02:45:14.390Z,0.80
2023-08-29T02:47:47.202Z,0.70
2023-08-29T02:50:19.170Z,0.90
2023-08-29T02:52:51.080Z,0.80
2023-08-29T02:55:25.090Z,0.70
2023-08-29T02:57:59.334Z,0.70
2023-08-29T03:00:34.718Z,0.80
2023-08-29T03:03:09.890Z,1.00
2023-08-29T03:05:44.222Z,0.80
2023-08-29T03:08:17.081Z,1.50
2023-08-29T03:10:51.155Z,1.17
2023-08-29T03:13:24.100Z,0.63
2023-08-29T03:15:59.182Z,1.60
2023-08-29T03:18:32.017Z,1.63
2023-08-29T03:21:09.300Z,1.50
2023-08-29T03:23:42.050Z,1.20
2023-08-29T03:26:16.157Z,0.80
2023-08-29T03:28:49.702Z,0.80
2023-08-29T03:31:23.924Z,0.80
2023-08-29T03:33:58.199Z,0.60
2023-08-29T03:36:30.076Z,0.80
2023-08-29T03:39:03.889Z,0.70
2023-08-29T03:41:38.626Z,0.90
2023-08-29T03:44:11.057Z,0.70
2023-08-29T03:46:45.748Z,0.87
2023-08-29T03:49:20.118Z,0.70
2023-08-29T03:51:53.108Z,0.87
2023-08-29T03:54:25.824Z,0.85
2023-08-29T03:56:59.098Z,0.90
2023-08-29T03:59:31.224Z,0.70
2023-08-29T04:02:07.606Z,0.80
2023-08-29T04:04:39.551Z,1.00
2023-08-29T04:07:11.162Z,1.00
2023-08-29T04:09:44.038Z,1.02
2023-08-29T04:12:18.025Z,0.80
2023-08-29T04:14:50.027Z,0.70
2023-08-29T04:17:25.826Z,0.80
2023-08-29T04:19:57.067Z,0.73
2023-08-29T04:22:30.072Z,0.90
2023-08-29T04:25:02.137Z,0.70
2023-08-29T04:27:34.172Z,0.95
2023-08-29T04:30:08.222Z,0.90
2023-08-29T04:32:42.808Z,1.30
2023-08-29T04:35:14.904Z,1.20
2023-08-29T04:37:51.736Z,0.80
2023-08-29T04:40:24.998Z,1.10
2023-08-29T04:42:59.068Z,1.50
2023-08-29T04:45:34.175Z,1.50
2023-08-29T04:48:10.714Z,1.20
2023-08-29T04:50:43.127Z,1.15
2023-08-29T04:53:18.229Z,0.75
2023-08-29T04:55:51.055Z,1.30
2023-08-29T04:58:25.157Z,1.10
2023-08-29T05:00:58.085Z,1.55
2023-08-29T05:03:34.218Z,1.20
2023-08-29T05:06:06.382Z,1.23
2023-08-29T05:08:38.812Z,1.40
2023-08-29T05:11:12.132Z,1.23
2023-08-29T05:13:46.651Z,1.70
2023-08-29T05:16:20.538Z,1.38
2023-08-29T05:19:00.814Z,1.50
2023-08-29T05:21:35.824Z,1.40
2023-08-29T05:24:07.831Z,1.83
2023-08-29T05:26:39.116Z,1.43
2023-08-29T05:29:11.129Z,1.33
2023-08-29T05:31:44.165Z,1.60
2023-08-29T05:34:18.872Z,1.60
2023-08-29T05:36:53.181Z,1.30
2023-08-29T05:39:25.108Z,1.50
2023-08-29T05:41:59.189Z,1.63
2023-08-29T05:44:32.154Z,2.00
2023-08-29T05:47:06.208Z,2.30
2023-08-29T05:49:40.853Z,1.80
2023-08-29T05:52:12.133Z,2.00
2023-08-29T05:54:44.317Z,2.28
2023-08-29T05:57:17.184Z,2.47
2023-08-29T05:59:49.274Z,1.80
2023-08-29T06:02:22.177Z,2.25
2023-08-29T06:04:56.845Z,2.10
2023-08-29T06:07:31.611Z,2.30
2023-08-29T06:10:04.308Z,2.50
2023-08-29T06:12:36.198Z,2.60
2023-08-29T06:15:10.738Z,1.70
2023-08-29T06:17:43.249Z,2.85
2023-08-29T06:20:19.475Z,2.95
2023-08-29T06:22:51.221Z,2.60
2023-08-29T06:25:25.583Z,2.50
2023-08-29T06:27:57.296Z,2.83
2023-08-29T06:30:30.835Z,3.10
2023-08-29T06:33:08.077Z,2.60
2023-08-29T06:35:44.104Z,3.20
2023-08-29T06:40:50.230Z,2.80
2023-08-29T06:43:23.135Z,2.90
2023-08-29T06:45:56.731Z,3.43
2023-08-29T06:48:31.191Z,3.30
2023-08-29T06:51:07.028Z,3.13
2023-08-29T06:56:20.012Z,3.17
2023-08-29T06:58:53.449Z,3.70
2023-08-29T07:01:25.577Z,3.75
2023-08-29T07:03:57.482Z,2.95
2023-08-29T07:06:32.972Z,4.00
2023-08-29T07:09:05.246Z,3.97
2023-08-29T07:11:37.253Z,3.67
2023-08-29T07:14:10.457Z,3.92
2023-08-29T07:16:44.347Z,3.90
2023-08-29T07:19:22.262Z,3.50
2023-08-29T07:21:59.164Z,4.20
2023-08-29T07:24:35.292Z,4.05
2023-08-29T07:27:08.841Z,3.90
2023-08-29T07:29:42.817Z,4.15
2023-08-29T07:32:14.282Z,4.53
2023-08-29T07:34:46.453Z,6.10
2023-08-29T07:37:21.878Z,3.80
2023-08-29T07:39:53.264Z,4.10
2023-08-29T07:42:25.235Z,4.15
2023-08-29T07:44:58.179Z,4.20
2023-08-29T07:47:30.523Z,4.10
2023-08-29T07:50:04.124Z,3.25
2023-08-29T07:52:42.357Z,3.73
2023-08-29T07:55:14.232Z,3.45
2023-08-29T07:57:46.782Z,3.55
2023-08-29T08:00:22.761Z,3.60
2023-08-29T08:05:25.594Z,3.35
2023-08-29T08:08:01.585Z,3.33
2023-08-29T08:10:35.262Z,2.90
2023-08-29T08:13:07.424Z,3.25
2023-08-29T08:15:39.194Z,2.88
2023-08-29T08:18:11.278Z,3.03
2023-08-29T08:20:43.678Z,2.47
2023-08-29T08:23:17.893Z,11.90
2023-08-29T08:25:50.466Z,5.75
2023-08-29T08:28:23.408Z,8.68
2023-08-29T08:30:55.184Z,7.22
2023-08-29T08:33:28.234Z,7.38
2023-08-29T08:36:00.220Z,3.00
2023-08-29T08:38:35.061Z,3.40
2023-08-29T08:41:09.264Z,2.97
2023-08-29T08:43:42.482Z,3.00
2023-08-29T08:46:16.236Z,3.00
2023-08-29T08:48:48.871Z,2.88
2023-08-29T08:51:23.728Z,2.85
2023-08-29T08:53:57.805Z,2.60
2023-08-29T08:56:33.026Z,3.05
2023-08-29T08:59:05.252Z,2.72
2023-08-29T09:01:38.288Z,2.45
2023-08-29T09:04:10.343Z,3.13
2023-08-29T09:06:43.240Z,2.55
2023-08-29T09:09:24.652Z,2.20
2023-08-29T09:11:57.666Z,2.55
2023-08-29T09:14:29.694Z,2.13
2023-08-29T09:17:01.984Z,2.58
2023-08-29T09:19:37.258Z,2.80
2023-08-29T09:22:09.393Z,2.95
2023-08-29T09:24:43.937Z,2.60
2023-08-29T09:27:19.044Z,2.70
2023-08-29T09:29:53.310Z,2.53
2023-08-29T09:32:27.286Z,2.40
2023-08-29T09:35:02.555Z,2.50
2023-08-29T09:37:34.952Z,2.42
2023-08-29T09:40:26.966Z,1.95
2023-08-29T09:43:05.664Z,2.10
2023-08-29T09:45:39.361Z,2.95
2023-08-29T09:48:13.007Z,2.28
2023-08-29T09:50:46.217Z,2.55
2023-08-29T09:53:18.980Z,2.87
2023-08-29T09:56:11.322Z,2.70
2023-08-29T09:58:43.339Z,2.70
2023-08-29T10:01:16.265Z,2.90
2023-08-29T10:03:48.382Z,2.70
2023-08-29T10:06:20.473Z,2.75
2023-08-29T10:08:56.773Z,3.00
2023-08-29T10:11:48.536Z,2.55
2023-08-29T10:14:25.380Z,2.47
2023-08-29T10:17:00.137Z,2.60
2023-08-29T10:19:34.223Z,2.15
2023-08-29T10:22:08.861Z,2.90
2023-08-29T10:24:41.110Z,2.75
2023-08-29T10:27:17.883Z,3.05
2023-08-29T10:29:49.335Z,2.75
2023-08-29T10:32:21.202Z,2.92
2023-08-29T10:34:55.601Z,2.80
2023-08-29T10:37:27.386Z,2.60
2023-08-29T10:39:59.501Z,2.75
2023-08-29T10:42:45.724Z,2.90
2023-08-29T10:45:18.389Z,2.97
2023-08-29T10:47:51.376Z,3.00
2023-08-29T10:50:27.130Z,3.17
2023-08-29T10:53:02.229Z,3.20
2023-08-29T10:55:42.573Z,3.27
2023-08-29T10:58:38.078Z,2.75
2023-08-29T11:01:32.222Z,3.42
2023-08-29T11:04:05.442Z,3.33
2023-08-29T11:06:56.876Z,3.65
2023-08-29T11:09:31.424Z,3.93
2023-08-29T11:12:10.581Z,3.45
2023-08-29T11:14:58.540Z,2.88
2023-08-29T11:17:30.288Z,3.53
2023-08-29T11:20:03.828Z,3.35
2023-08-29T11:22:35.297Z,2.83
2023-08-29T11:25:08.054Z,3.05
2023-08-29T11:27:42.685Z,3.15
2023-08-29T11:30:31.244Z,2.60
2023-08-29T11:33:13.325Z,2.70
2023-08-29T11:35:45.327Z,2.80
2023-08-29T11:38:17.427Z,3.50
2023-08-29T11:41:00.160Z,3.35
2023-08-29T11:44:23.439Z,3.35
2023-08-29T11:46:34.401Z,2.60
2023-08-29T11:49:18.011Z,2.87
2023-08-29T11:51:50.305Z,3.17
2023-08-29T11:54:40.572Z,3.07
2023-08-29T11:57:14.781Z,2.72
2023-08-29T11:59:46.312Z,3.47
2023-08-29T12:02:20.137Z,3.25
2023-08-29T12:04:59.191Z,3.00
2023-08-29T12:07:35.382Z,3.28
2023-08-29T12:10:10.896Z,3.80
2023-08-29T12:12:42.342Z,4.20
2023-08-29T12:15:19.508Z,3.25
2023-08-29T12:17:57.222Z,3.10
2023-08-29T12:20:35.181Z,3.50
2023-08-29T12:23:09.285Z,3.88
2023-08-29T12:25:42.318Z,3.00
2023-08-29T12:28:14.674Z,4.05
2023-08-29T12:30:46.366Z,3.72
2023-08-29T12:33:18.202Z,3.78
2023-08-29T12:35:52.988Z,3.70
2023-08-29T12:38:24.735Z,3.70
2023-08-29T12:40:57.501Z,4.18
2023-08-29T12:43:30.673Z,3.45
2023-08-29T12:46:02.234Z,3.60
2023-08-29T12:48:35.264Z,3.45
2023-08-29T12:51:11.144Z,3.70
2023-08-29T12:56:17.283Z,3.50
2023-08-29T12:58:49.996Z,3.90
2023-08-29T13:01:29.162Z,3.90
2023-08-29T13:04:02.312Z,3.80
2023-08-29T13:06:37.920Z,4.90
2023-08-29T13:09:23.325Z,4.40
2023-08-29T13:12:05.241Z,4.57
2023-08-29T13:14:39.243Z,4.60
2023-08-29T13:17:15.073Z,4.67
2023-08-29T13:19:48.362Z,4.40
2023-08-29T13:22:25.167Z,4.68
2023-08-29T13:24:57.239Z,4.70
2023-08-29T13:27:29.396Z,4.97
2023-08-29T13:30:01.410Z,4.28
2023-08-29T13:32:33.688Z,4.70
2023-08-29T13:35:05.330Z,4.25
2023-08-29T13:37:40.062Z,4.70
2023-08-29T13:40:14.770Z,4.60
2023-08-29T13:42:46.869Z,4.55
2023-08-29T13:45:19.815Z,4.68
2023-08-29T13:47:58.516Z,5.20
2023-08-29T13:50:30.428Z,5.23
2023-08-29T13:53:06.566Z,4.20
2023-08-29T13:55:42.367Z,4.33
2023-08-29T14:00:46.618Z,4.15
2023-08-29T14:03:33.143Z,4.10
2023-08-29T14:06:11.278Z,4.80
2023-08-29T14:08:47.817Z,4.75
2023-08-29T14:11:16.636Z,4.30
2023-08-29T14:13:48.593Z,4.88
2023-08-29T14:16:21.729Z,4.75
2023-08-29T14:18:53.749Z,4.82
2023-08-29T14:21:25.927Z,4.80
2023-08-29T14:24:02.400Z,5.00
2023-08-29T14:26:35.780Z,4.80
2023-08-29T14:29:08.503Z,4.97
2023-08-29T14:31:40.985Z,4.78
2023-08-29T14:34:12.590Z,5.10
2023-08-29T14:36:45.860Z,5.25
2023-08-29T14:39:20.241Z,5.70
2023-08-29T14:41:53.408Z,5.83
2023-08-29T14:44:26.997Z,5.60
2023-08-29T14:46:59.009Z,5.85
2023-08-29T14:49:31.751Z,5.10
2023-08-29T14:52:04.017Z,5.63
2023-08-29T14:54:41.104Z,5.55
2023-08-29T14:57:14.059Z,5.65
2023-08-29T14:59:48.455Z,5.00
2023-08-29T15:02:21.495Z,5.80
2023-08-29T15:04:53.996Z,5.40
2023-08-29T15:07:27.713Z,5.38
2023-08-29T15:10:06.225Z,5.10
2023-08-29T15:12:40.873Z,5.73
2023-08-29T15:15:17.949Z,5.97
2023-08-29T15:17:51.937Z,5.30
2023-08-29T15:20:25.006Z,5.60
2023-08-29T15:23:00.491Z,5.30
2023-08-29T15:25:37.146Z,5.20
2023-08-29T15:28:12.884Z,6.03
2023-08-29T15:30:48.289Z,5.50
2023-08-29T15:33:25.114Z,5.80
2023-08-29T15:35:58.362Z,6.00
2023-08-29T15:38:30.814Z,5.10
2023-08-29T15:41:08.243Z,5.00
2023-08-29T15:43:42.465Z,5.85
2023-08-29T15:46:15.375Z,6.30
2023-08-29T15:48:48.395Z,5.70
2023-08-29T15:51:20.596Z,5.50
2023-08-29T15:53:54.894Z,5.60
2023-08-29T15:56:28.588Z,5.73
2023-08-29T15:59:03.959Z,5.15
2023-08-29T16:01:39.129Z,5.15
2023-08-29T16:04:13.715Z,5.50
2023-08-29T16:06:47.230Z,5.60
2023-08-29T16:09:21.571Z,6.00
2023-08-29T16:11:54.117Z,5.78
2023-08-29T16:14:33.283Z,5.60
2023-08-29T16:17:05.442Z,5.47
2023-08-29T16:19:37.427Z,5.80
2023-08-29T16:22:10.143Z,6.25
2023-08-29T16:24:42.584Z,6.03
2023-08-29T16:27:16.834Z,6.27
2023-08-29T16:29:57.072Z,5.55
2023-08-29T16:32:29.500Z,6.05
2023-08-29T16:35:02.339Z,6.07
2023-08-29T16:37:34.866Z,6.05
2023-08-29T16:40:11.294Z,6.20
2023-08-29T16:42:44.506Z,6.10
2023-08-29T16:45:19.065Z,6.30
2023-08-29T16:47:54.034Z,6.00
2023-08-29T16:50:29.159Z,6.60
2023-08-29T16:53:00.525Z,6.30
2023-08-29T16:55:35.375Z,6.50
2023-08-29T16:58:08.633Z,6.15
2023-08-29T17:00:43.168Z,6.25
2023-08-29T17:03:15.505Z,5.60
2023-08-29T17:05:47.432Z,5.47
2023-08-29T17:08:19.387Z,5.75
2023-08-29T17:10:53.278Z,5.15
2023-08-29T17:13:25.355Z,5.80
2023-08-29T17:16:00.795Z,5.38
2023-08-29T17:18:33.455Z,5.38
2023-08-29T17:21:06.384Z,5.10
2023-08-29T17:23:39.478Z,5.60
2023-08-29T17:26:13.099Z,4.32
2023-08-29T17:28:47.281Z,5.15
2023-08-29T17:31:24.129Z,5.60
2023-08-29T17:33:59.379Z,4.50
2023-08-29T17:36:32.673Z,4.80
2023-08-29T17:39:05.602Z,5.60
2023-08-29T17:41:37.913Z,4.87
2023-08-29T17:44:10.161Z,5.45
2023-08-29T17:46:48.748Z,4.40
2023-08-29T17:49:21.264Z,5.15
2023-08-29T17:51:54.327Z,5.43
2023-08-29T17:54:26.586Z,5.10
2023-08-29T17:56:58.494Z,5.32
2023-08-29T17:59:30.411Z,5.95
2023-08-29T18:02:05.100Z,5.70
2023-08-29T18:04:36.855Z,5.63
2023-08-29T18:07:10.085Z,5.75
2023-08-29T18:09:50.959Z,5.50
2023-08-29T18:12:23.211Z,5.80
2023-08-29T18:14:59.654Z,6.10
2023-08-29T18:17:35.610Z,5.15
2023-08-29T18:20:09.737Z,5.70
2023-08-29T18:22:42.661Z,5.30
2023-08-29T18:25:17.617Z,5.40
2023-08-29T18:27:49.599Z,4.95
2023-08-29T18:30:23.883Z,5.00
2023-08-29T18:32:59.670Z,5.37
2023-08-29T18:38:02.489Z,5.10
2023-08-29T18:40:35.518Z,5.30
2023-08-29T18:43:08.896Z,5.53
2023-08-29T18:45:44.845Z,5.10
2023-08-29T18:48:21.193Z,5.15
2023-08-29T18:51:00.844Z,5.72
2023-08-29T18:53:37.366Z,5.35
2023-08-29T18:56:12.674Z,5.82
2023-08-29T18:58:49.497Z,5.30
2023-08-29T19:01:23.370Z,5.85
2023-08-29T19:04:00.916Z,4.90
2023-08-29T19:06:38.451Z,4.60
2023-08-29T19:09:12.199Z,5.50
2023-08-29T19:11:46.313Z,5.95
2023-08-29T19:14:20.353Z,6.37
2023-08-29T19:16:52.523Z,6.72
2023-08-29T19:19:28.929Z,5.85
2023-08-29T19:22:01.235Z,6.43
2023-08-29T19:24:39.250Z,5.45
2023-08-29T19:27:21.602Z,6.50
2023-08-29T19:30:00.268Z,6.75
2023-08-29T19:32:34.682Z,7.13
2023-08-29T19:35:15.501Z,6.50
2023-08-29T19:37:49.104Z,7.15
2023-08-29T19:40:24.436Z,6.50
2023-08-29T19:42:59.077Z,6.70
2023-08-29T19:45:32.241Z,6.90
2023-08-29T19:48:05.725Z,7.17
2023-08-29T19:50:41.403Z,6.82
2023-08-29T19:53:13.665Z,6.83
2023-08-29T19:55:47.567Z,6.90
2023-08-29T19:58:21.120Z,6.45
2023-08-29T20:00:56.437Z,7.30
2023-08-29T20:03:31.314Z,6.30
2023-08-29T20:06:08.282Z,6.30
2023-08-29T20:08:42.586Z,6.65
2023-08-29T20:11:16.747Z,6.20
2023-08-29T20:13:53.028Z,5.75
2023-08-29T20:16:27.333Z,5.50
2023-08-29T20:19:01.560Z,4.63
2023-08-29T20:21:36.943Z,5.40
2023-08-29T20:24:10.249Z,5.00
2023-08-29T20:26:44.958Z,4.97
2023-08-29T20:29:18.191Z,4.60
2023-08-29T20:31:53.758Z,5.85
2023-08-29T20:34:26.657Z,5.30
2023-08-29T20:37:03.563Z,5.40
2023-08-29T20:39:37.005Z,5.60
2023-08-29T20:42:12.775Z,5.18
2023-08-29T20:44:47.149Z,5.05
2023-08-29T20:47:19.777Z,5.25
2023-08-29T20:49:57.172Z,5.00
2023-08-29T20:52:31.548Z,5.00
2023-08-29T20:55:05.714Z,4.85
2023-08-29T20:57:39.104Z,5.60
2023-08-29T21:00:15.693Z,4.55
2023-08-29T21:02:48.601Z,3.90
2023-08-29T21:05:21.178Z,4.50
2023-08-29T21:07:58.890Z,3.75
2023-08-29T21:10:33.542Z,4.00
2023-08-29T21:13:06.598Z,4.00
2023-08-29T21:15:44.175Z,3.70
2023-08-29T21:18:17.037Z,3.35
2023-08-29T21:20:57.021Z,3.30
2023-08-29T21:23:35.218Z,3.03
2023-08-29T21:26:09.611Z,2.88
2023-08-29T21:28:42.975Z,2.80
2023-08-29T21:31:16.547Z,2.97
2023-08-29T21:33:48.743Z,2.60
2023-08-29T21:36:20.504Z,2.58
2023-08-29T21:38:56.003Z,2.60
2023-08-29T21:41:28.371Z,2.05
2023-08-29T21:44:01.333Z,1.92
2023-08-29T21:46:35.362Z,1.95
2023-08-29T21:49:08.424Z,1.70
2023-08-29T21:51:40.688Z,1.63
2023-08-29T21:54:16.385Z,1.90
2023-08-29T21:56:49.604Z,1.60
2023-08-29T21:59:22.537Z,1.75
2023-08-29T22:01:54.844Z,1.70
2023-08-29T22:04:27.012Z,1.60
2023-08-29T22:07:02.502Z,1.80
2023-08-29T22:09:37.540Z,2.03
2023-08-29T22:12:11.430Z,1.40
2023-08-29T22:14:44.430Z,1.50
2023-08-29T22:17:17.611Z,1.90
2023-08-29T22:19:50.398Z,1.45
2023-08-29T22:22:23.495Z,1.40
2023-08-29T22:24:59.080Z,1.50
2023-08-29T22:27:30.555Z,1.95
2023-08-29T22:30:04.761Z,2.25
2023-08-29T22:32:37.427Z,1.90
2023-08-29T22:35:11.696Z,2.05
2023-08-29T22:37:44.730Z,1.70
2023-08-29T22:40:20.413Z,1.67
2023-08-29T22:42:52.429Z,2.03
2023-08-29T22:45:24.648Z,2.20
2023-08-29T22:47:57.428Z,1.67
2023-08-29T22:50:30.634Z,1.90
2023-08-29T22:53:03.631Z,1.90
2023-08-29T22:55:41.775Z,2.20
2023-08-29T22:58:13.579Z,1.50
2023-08-29T23:00:45.682Z,1.85
2023-08-29T23:03:18.741Z,1.60
2023-08-29T23:05:51.675Z,1.40
2023-08-29T23:08:24.434Z,2.03
2023-08-29T23:10:59.982Z,1.50
2023-08-29T23:13:34.553Z,1.90
2023-08-29T23:16:07.842Z,1.80
2023-08-29T23:18:40.290Z,1.40
2023-08-29T23:21:12.780Z,1.57
2023-08-29T23:23:46.476Z,1.60
2023-08-29T23:26:21.119Z,1.73
2023-08-29T23:28:53.477Z,1.90
2023-08-29T23:31:25.453Z,1.65
2023-08-29T23:33:57.764Z,2.10
2023-08-29T23:36:30.465Z,2.03
2023-08-29T23:39:02.513Z,1.97
2023-08-29T23:41:37.273Z,1.70
2023-08-29T23:44:11.497Z,2.38
2023-08-29T23:46:44.522Z,1.63
2023-08-29T23:49:17.396Z,1.75
2023-08-29T23:51:51.709Z,1.73
2023-08-29T23:54:23.458Z,1.75
2023-08-29T23:56:56.871Z,1.45
2023-08-29T23:59:30.387Z,1.55
